createdAt,value
2022-12-25T00:04:08.943Z,7.07
2022-12-25T00:09:15.510Z,7.38
2022-12-25T00:14:17.038Z,7.48
2022-12-25T00:19:18.593Z,7.73
2022-12-25T00:24:20.107Z,7.86
2022-12-25T00:29:24.863Z,7.97
2022-12-25T00:34:27.338Z,8.18
2022-12-25T00:39:28.991Z,8.36
2022-12-25T00:44:30.582Z,8.42
2022-12-25T00:49:32.265Z,8.42
2022-12-25T00:54:34.170Z,8.33
2022-12-25T00:59:35.923Z,8.33
2022-12-25T01:04:37.627Z,8.24
2022-12-25T01:09:58.527Z,8.15
2022-12-25T01:15:00.178Z,8.18
2022-12-25T01:20:02.206Z,8.26
2022-12-25T01:25:05.585Z,8.21
2022-12-25T01:30:09.803Z,8.41
2022-12-25T01:35:12.165Z,8.36
2022-12-25T01:40:14.740Z,8.38
2022-12-25T01:45:43.654Z,8.59
2022-12-25T01:50:51.568Z,8.48
2022-12-25T01:56:00.034Z,8.57
2022-12-25T02:01:02.296Z,8.59
2022-12-25T02:06:04.529Z,8.61
2022-12-25T02:11:06.312Z,8.72
2022-12-25T02:16:17.688Z,8.85
2022-12-25T02:21:58.042Z,8.86
2022-12-25T02:27:34.934Z,8.87
2022-12-25T02:33:20.239Z,8.91
2022-12-25T02:39:04.794Z,8.78
2022-12-25T02:44:32.317Z,9.03
2022-12-25T02:49:53.854Z,8.89
2022-12-25T02:55:20.482Z,8.88
2022-12-25T03:00:41.333Z,8.85
2022-12-25T03:06:04.105Z,8.86
2022-12-25T03:11:30.833Z,9.09
2022-12-25T03:16:50.633Z,9.03
2022-12-25T03:22:13.410Z,9.19
2022-12-25T03:27:18.326Z,9.00
2022-12-25T03:33:23.356Z,8.97
2022-12-25T03:38:51.661Z,8.82
2022-12-25T03:44:26.375Z,8.63
2022-12-25T03:49:57.774Z,8.59
2022-12-25T03:55:23.065Z,8.63
2022-12-25T04:00:43.162Z,8.40
2022-12-25T04:06:05.893Z,8.38
2022-12-25T04:11:26.084Z,8.38
2022-12-25T04:16:46.345Z,8.30
2022-12-25T04:22:06.659Z,8.29
2022-12-25T04:27:26.916Z,8.51
2022-12-25T04:32:47.148Z,8.56
2022-12-25T04:37:48.870Z,8.87
2022-12-25T04:42:51.480Z,8.65
2022-12-25T04:47:53.286Z,8.71
2022-12-25T04:52:54.961Z,8.91
2022-12-25T04:57:56.509Z,8.68
2022-12-25T05:02:59.062Z,8.83
2022-12-25T05:08:01.021Z,8.95
2022-12-25T05:13:02.679Z,9.00
2022-12-25T05:18:04.517Z,8.81
2022-12-25T05:23:06.141Z,9.17
2022-12-25T05:28:08.088Z,9.11
2022-12-25T05:33:09.721Z,8.83
2022-12-25T05:38:11.365Z,8.80
2022-12-25T05:43:12.987Z,8.57
2022-12-25T05:48:18.010Z,8.62
2022-12-25T05:53:21.604Z,8.46
2022-12-25T05:58:23.203Z,8.22
2022-12-25T06:03:25.057Z,8.26
2022-12-25T06:08:26.780Z,8.25
2022-12-25T06:13:28.441Z,8.52
2022-12-25T06:18:39.175Z,8.41
2022-12-25T06:23:41.649Z,8.54
2022-12-25T06:28:44.353Z,8.73
2022-12-25T06:33:46.609Z,8.79
2022-12-25T06:38:48.636Z,8.85
2022-12-25T06:43:52.248Z,9.07
2022-12-25T06:48:54.396Z,8.87
2022-12-25T06:53:56.126Z,8.77
2022-12-25T06:59:04.286Z,8.80
2022-12-25T07:04:11.474Z,8.82
2022-12-25T07:09:13.195Z,8.97
2022-12-25T07:14:24.308Z,9.05
2022-12-25T07:19:26.142Z,9.04
2022-12-25T07:24:27.868Z,9.29
2022-12-25T07:29:29.498Z,9.51
2022-12-25T07:34:31.190Z,9.29
2022-12-25T07:39:34.168Z,9.34
2022-12-25T07:44:35.792Z,9.15
2022-12-25T07:49:37.435Z,9.19
2022-12-25T07:54:39.159Z,9.36
2022-12-25T07:59:43.181Z,9.40
2022-12-25T08:04:44.883Z,9.38
2022-12-25T08:09:46.536Z,9.50
2022-12-25T08:14:49.115Z,9.62
2022-12-25T08:19:52.639Z,9.50
2022-12-25T08:24:54.189Z,9.49
2022-12-25T08:29:55.890Z,9.65
2022-12-25T08:34:57.515Z,9.34
2022-12-25T08:39:59.133Z,9.67
2022-12-25T08:45:00.857Z,9.68
2022-12-25T08:50:02.421Z,9.88
2022-12-25T08:55:04.983Z,9.76
2022-12-25T09:00:07.161Z,9.72
2022-12-25T09:05:09.293Z,9.88
2022-12-25T09:10:11.295Z,9.86
2022-12-25T09:15:13.084Z,9.90
2022-12-25T09:20:14.789Z,9.88
2022-12-25T09:25:16.500Z,9.97
2022-12-25T09:30:18.173Z,9.93
2022-12-25T09:35:19.784Z,10.07
2022-12-25T09:40:25.851Z,10.19
2022-12-25T09:45:34.120Z,10.10
2022-12-25T09:50:43.831Z,10.05
2022-12-25T09:56:11.588Z,10.00
2022-12-25T10:01:19.749Z,9.82
2022-12-25T10:06:51.997Z,10.05
2022-12-25T10:12:24.102Z,10.07
2022-12-25T10:17:58.329Z,10.18
2022-12-25T10:23:02.164Z,10.15
2022-12-25T10:28:11.883Z,10.07
2022-12-25T10:33:17.164Z,10.09
2022-12-25T10:38:20.009Z,9.99
2022-12-25T10:43:28.083Z,10.02
2022-12-25T10:48:33.088Z,10.13
2022-12-25T10:53:42.664Z,10.09
2022-12-25T10:58:44.854Z,10.15
2022-12-25T11:03:58.065Z,10.13
2022-12-25T11:09:03.621Z,10.06
2022-12-25T11:14:05.549Z,9.93
2022-12-25T11:19:29.516Z,10.05
2022-12-25T11:24:33.123Z,9.89
2022-12-25T11:29:45.304Z,10.10
2022-12-25T11:34:48.894Z,10.01
2022-12-25T11:39:50.771Z,10.09
2022-12-25T11:44:57.638Z,10.09
2022-12-25T11:50:14.224Z,10.10
2022-12-25T11:55:40.846Z,10.28
2022-12-25T12:00:46.377Z,10.03
2022-12-25T12:06:03.133Z,10.14
2022-12-25T12:11:21.198Z,10.28
2022-12-25T12:16:25.324Z,10.09
2022-12-25T12:21:31.157Z,10.06
2022-12-25T12:26:38.009Z,10.23
2022-12-25T12:31:47.285Z,10.08
2022-12-25T12:36:51.373Z,10.20
2022-12-25T12:41:53.653Z,10.20
2022-12-25T12:46:57.617Z,10.21
2022-12-25T12:52:30.439Z,9.89
2022-12-25T12:57:39.278Z,10.11
2022-12-25T13:03:19.836Z,10.00
2022-12-25T13:08:30.761Z,10.28
2022-12-25T13:13:44.591Z,10.06
2022-12-25T13:18:46.298Z,10.13
2022-12-25T13:23:48.098Z,10.03
2022-12-25T13:28:49.684Z,10.24
2022-12-25T13:34:00.870Z,10.11
2022-12-25T13:39:03.258Z,10.05
2022-12-25T13:44:21.566Z,10.18
2022-12-25T13:49:24.371Z,10.18
2022-12-25T13:54:26.863Z,10.11
2022-12-25T13:59:28.471Z,10.28
2022-12-25T14:04:30.046Z,10.42
2022-12-25T14:09:32.557Z,10.30
2022-12-25T14:14:35.818Z,10.42
2022-12-25T14:19:37.501Z,10.44
2022-12-25T14:24:40.572Z,10.42
2022-12-25T14:29:44.922Z,10.35
2022-12-25T14:34:48.715Z,10.31
2022-12-25T14:39:58.555Z,10.23
2022-12-25T14:45:05.588Z,10.29
2022-12-25T14:50:15.819Z,10.34
2022-12-25T14:55:25.686Z,10.31
2022-12-25T15:00:32.074Z,10.22
2022-12-25T15:05:38.946Z,10.28
2022-12-25T15:11:00.261Z,10.37
2022-12-25T15:16:13.010Z,10.32
2022-12-25T15:21:22.771Z,10.36
2022-12-25T15:26:25.818Z,10.19
2022-12-25T15:31:32.542Z,10.45
2022-12-25T15:36:34.308Z,10.56
2022-12-25T15:41:56.097Z,10.85
2022-12-25T15:47:00.253Z,10.34
2022-12-25T15:52:03.771Z,10.55
2022-12-25T15:57:10.241Z,10.57
2022-12-25T16:02:20.505Z,10.61
2022-12-25T16:07:23.979Z,10.54
2022-12-25T16:12:26.053Z,9.98
2022-12-25T16:17:27.764Z,10.00
2022-12-25T16:22:31.683Z,9.95
2022-12-25T16:27:33.291Z,10.21
2022-12-25T16:32:35.047Z,9.89
2022-12-25T16:37:36.703Z,9.73
2022-12-25T16:42:38.485Z,9.82
2022-12-25T16:47:40.071Z,10.18
2022-12-25T16:52:41.678Z,10.14
2022-12-25T16:57:43.315Z,10.25
2022-12-25T17:02:45.091Z,10.28
2022-12-25T17:07:47.114Z,10.12
2022-12-25T17:12:48.881Z,9.97
2022-12-25T17:17:50.471Z,10.14
2022-12-25T17:22:52.196Z,10.12
2022-12-25T17:27:53.783Z,10.20
2022-12-25T17:32:55.339Z,10.00
2022-12-25T17:37:56.879Z,10.28
2022-12-25T17:42:58.540Z,10.26
2022-12-25T17:48:00.133Z,10.45
2022-12-25T17:53:02.676Z,10.55
2022-12-25T17:58:04.943Z,10.56
2022-12-25T18:03:11.472Z,10.58
2022-12-25T18:08:15.300Z,9.98
2022-12-25T18:13:17.029Z,9.94
2022-12-25T18:18:18.720Z,9.86
2022-12-25T18:23:21.347Z,9.98
2022-12-25T18:28:23.365Z,10.36
2022-12-25T18:33:25.688Z,9.97
2022-12-25T18:38:27.776Z,10.01
2022-12-25T18:43:51.608Z,10.20
2022-12-25T18:48:51.471Z,10.42
2022-12-25T18:53:56.852Z,10.11
2022-12-25T18:59:01.885Z,9.75
2022-12-25T19:04:05.561Z,9.57
2022-12-25T19:09:12.161Z,10.02
2022-12-25T19:14:14.189Z,10.05
2022-12-25T19:19:16.262Z,9.67
2022-12-25T19:24:17.827Z,9.71
2022-12-25T19:29:20.493Z,9.88
2022-12-25T19:34:22.149Z,9.61
2022-12-25T19:39:23.859Z,10.07
2022-12-25T19:44:25.657Z,10.25
2022-12-25T19:49:27.459Z,10.43
2022-12-25T19:54:29.588Z,10.43
2022-12-25T19:59:31.233Z,9.76
2022-12-25T20:04:33.019Z,9.70
2022-12-25T20:09:34.819Z,9.76
2022-12-25T20:14:36.388Z,10.28
2022-12-25T20:19:38.051Z,10.18
2022-12-25T20:24:39.703Z,10.12
2022-12-25T20:29:41.327Z,9.82
2022-12-25T20:34:43.218Z,9.82
2022-12-25T20:39:44.951Z,9.78
2022-12-25T20:44:46.524Z,10.03
2022-12-25T20:49:52.446Z,9.81
2022-12-25T20:54:54.185Z,9.65
2022-12-25T20:59:55.968Z,9.59
2022-12-25T21:04:57.685Z,9.93
2022-12-25T21:09:59.718Z,9.82
2022-12-25T21:15:01.393Z,9.74
2022-12-25T21:20:03.505Z,9.83
2022-12-25T21:25:05.651Z,10.01
2022-12-25T21:30:15.473Z,9.92
2022-12-25T21:35:17.465Z,9.75
2022-12-25T21:40:19.156Z,9.57
2022-12-25T21:45:20.772Z,9.38
2022-12-25T21:50:40.957Z,9.34
2022-12-25T21:55:42.676Z,9.53
2022-12-25T22:00:44.288Z,9.47
2022-12-25T22:06:07.032Z,9.39
2022-12-25T22:11:32.088Z,9.50
2022-12-25T22:16:52.502Z,9.46
2022-12-25T22:21:54.018Z,9.59
2022-12-25T22:26:55.534Z,9.48
2022-12-25T22:31:59.262Z,9.47
2022-12-25T22:37:02.343Z,9.45
2022-12-25T22:42:04.066Z,9.34
2022-12-25T22:47:05.782Z,9.55
2022-12-25T22:52:09.737Z,9.42
2022-12-25T22:57:11.443Z,9.56
2022-12-25T23:02:13.273Z,9.29
2022-12-25T23:07:15.700Z,9.24
2022-12-25T23:12:36.003Z,9.23
2022-12-25T23:17:56.319Z,9.14
2022-12-25T23:23:19.388Z,9.27
2022-12-25T23:28:44.103Z,9.50
2022-12-25T23:33:47.993Z,9.20
2022-12-25T23:38:49.697Z,9.34
2022-12-25T23:43:51.242Z,9.16
2022-12-25T23:48:52.829Z,9.20
2022-12-25T23:53:54.451Z,9.23
2022-12-25T23:58:56.068Z,9.23
